createdAt,value
2022-09-09T00:00:54.932Z,16.10
2022-09-09T00:03:00.900Z,16.10
2022-09-09T00:05:07.657Z,16.00
2022-09-09T00:07:12.876Z,16.00
2022-09-09T00:09:16.997Z,15.90
2022-09-09T00:11:21.867Z,15.90
2022-09-09T00:13:26.463Z,15.90
2022-09-09T00:15:31.160Z,15.80
2022-09-09T00:17:35.566Z,15.80
2022-09-09T00:19:40.946Z,15.80
2022-09-09T00:21:45.862Z,15.70
2022-09-09T00:23:50.181Z,15.80
2022-09-09T00:25:55.694Z,15.80
2022-09-09T00:27:58.295Z,15.70
2022-09-09T00:30:03.228Z,15.70
2022-09-09T00:32:10.410Z,15.70
2022-09-09T00:34:14.051Z,15.80
2022-09-09T00:36:18.442Z,15.80
2022-09-09T00:38:23.845Z,15.80
2022-09-09T00:40:28.632Z,15.80
2022-09-09T00:42:34.628Z,15.80
2022-09-09T00:44:38.602Z,15.90
2022-09-09T00:46:52.425Z,15.80
2022-09-09T00:48:58.230Z,15.80
2022-09-09T00:51:02.748Z,15.80
2022-09-09T00:53:09.824Z,15.70
2022-09-09T00:55:15.337Z,15.70
2022-09-09T00:57:23.830Z,15.70
2022-09-09T00:59:28.703Z,15.60
2022-09-09T01:01:31.762Z,15.60
2022-09-09T01:03:36.095Z,15.60
2022-09-09T01:05:42.829Z,15.60
2022-09-09T01:07:47.800Z,15.60
2022-09-09T01:09:55.975Z,15.60
2022-09-09T01:12:01.437Z,15.50
2022-09-09T01:14:11.033Z,15.50
2022-09-09T01:16:26.388Z,15.60
2022-09-09T01:18:31.891Z,15.60
2022-09-09T01:20:37.178Z,15.70
2022-09-09T01:22:43.039Z,15.70
2022-09-09T01:24:47.870Z,15.70
2022-09-09T01:26:53.467Z,15.70
2022-09-09T01:28:59.172Z,15.70
2022-09-09T01:31:04.848Z,15.70
2022-09-09T01:33:11.908Z,15.70
2022-09-09T01:35:33.669Z,15.70
2022-09-09T01:37:38.192Z,15.70
2022-09-09T01:39:42.605Z,15.70
2022-09-09T01:41:47.097Z,15.60
2022-09-09T01:43:52.264Z,15.70
2022-09-09T01:45:56.148Z,15.60
2022-09-09T01:47:59.019Z,15.50
2022-09-09T01:50:03.716Z,15.60
2022-09-09T01:54:23.410Z,15.60
2022-09-09T01:56:30.397Z,15.60
2022-09-09T01:58:35.791Z,15.50
2022-09-09T02:00:40.546Z,15.40
2022-09-09T02:02:46.641Z,15.50
2022-09-09T02:04:52.851Z,15.40
2022-09-09T02:06:57.798Z,15.40
2022-09-09T02:09:03.450Z,15.40
2022-09-09T02:11:08.822Z,15.40
2022-09-09T02:13:14.465Z,15.40
2022-09-09T02:15:19.885Z,15.50
2022-09-09T02:17:26.258Z,15.50
2022-09-09T02:19:32.469Z,15.40
2022-09-09T02:21:37.043Z,15.40
2022-09-09T02:23:40.563Z,15.50
2022-09-09T02:25:44.767Z,15.50
2022-09-09T02:27:51.291Z,15.60
2022-09-09T02:29:54.911Z,15.50
2022-09-09T02:32:00.822Z,15.50
2022-09-09T02:34:06.324Z,15.50
2022-09-09T02:36:10.170Z,15.50
2022-09-09T02:38:14.358Z,15.50
2022-09-09T02:40:18.963Z,15.60
2022-09-09T02:42:24.378Z,15.60
2022-09-09T02:44:27.783Z,15.60
2022-09-09T02:46:35.867Z,15.50
2022-09-09T02:48:40.586Z,15.60
2022-09-09T02:50:45.363Z,15.60
2022-09-09T02:53:02.102Z,15.60
2022-09-09T02:55:07.030Z,15.70
2022-09-09T02:57:13.076Z,15.70
2022-09-09T02:59:16.909Z,15.70
2022-09-09T03:01:19.938Z,15.70
2022-09-09T03:03:22.589Z,15.70
2022-09-09T03:05:26.546Z,15.80
2022-09-09T03:07:29.480Z,15.80
2022-09-09T03:09:32.975Z,15.80
2022-09-09T03:11:35.553Z,15.80
2022-09-09T03:13:38.697Z,15.80
2022-09-09T03:15:41.736Z,15.80
2022-09-09T03:17:45.737Z,15.80
2022-09-09T03:19:49.929Z,15.80
2022-09-09T03:21:52.905Z,15.80
2022-09-09T03:23:56.058Z,15.90
2022-09-09T03:25:59.167Z,15.80
2022-09-09T03:28:03.521Z,15.80
2022-09-09T03:30:06.959Z,15.80
2022-09-09T03:32:10.582Z,15.80
2022-09-09T03:34:14.032Z,15.80
2022-09-09T03:36:16.745Z,15.80
2022-09-09T03:38:19.306Z,15.80
2022-09-09T03:40:21.905Z,15.80
2022-09-09T03:42:24.538Z,15.80
2022-09-09T03:44:28.919Z,15.80
2022-09-09T03:46:31.729Z,15.80
2022-09-09T03:48:34.627Z,15.80
2022-09-09T03:50:37.305Z,15.80
2022-09-09T03:52:41.113Z,15.80
2022-09-09T03:54:45.509Z,15.80
2022-09-09T03:56:48.107Z,15.90
2022-09-09T03:58:51.095Z,15.80
2022-09-09T04:00:55.481Z,15.80
2022-09-09T04:02:58.095Z,15.80
2022-09-09T04:05:01.929Z,15.80
2022-09-09T04:07:06.518Z,15.90
2022-09-09T04:09:09.023Z,15.90
2022-09-09T04:11:11.627Z,15.90
2022-09-09T04:13:15.626Z,15.90
2022-09-09T04:15:18.701Z,15.90
2022-09-09T04:17:21.274Z,15.90
2022-09-09T04:19:25.134Z,15.90
2022-09-09T04:21:27.787Z,15.90
2022-09-09T04:23:30.591Z,16.00
2022-09-09T04:25:34.519Z,16.00
2022-09-09T04:27:37.127Z,15.90
2022-09-09T04:29:39.710Z,15.90
2022-09-09T04:31:42.462Z,15.90
2022-09-09T04:33:45.204Z,16.00
2022-09-09T04:35:48.810Z,15.90
2022-09-09T04:37:51.447Z,15.90
2022-09-09T04:39:53.991Z,16.00
2022-09-09T04:41:57.002Z,15.90
2022-09-09T04:44:00.147Z,16.00
2022-09-09T04:46:02.811Z,16.00
2022-09-09T04:48:05.835Z,15.90
2022-09-09T04:50:09.842Z,15.90
2022-09-09T04:52:12.472Z,15.90
2022-09-09T04:54:14.995Z,15.90
2022-09-09T04:56:19.052Z,15.90
2022-09-09T04:58:24.091Z,15.90
2022-09-09T05:00:26.719Z,15.90
2022-09-09T05:02:31.650Z,15.90
2022-09-09T05:04:34.459Z,15.90
2022-09-09T05:06:37.599Z,15.90
2022-09-09T05:08:41.181Z,15.90
2022-09-09T05:10:44.798Z,16.00
2022-09-09T05:12:54.255Z,16.00
2022-09-09T05:14:57.015Z,16.00
2022-09-09T05:16:59.634Z,16.00
2022-09-09T05:19:03.646Z,16.10
2022-09-09T05:21:08.050Z,16.10
2022-09-09T05:23:11.659Z,16.10
2022-09-09T05:25:14.640Z,16.10
2022-09-09T05:29:33.770Z,16.10
2022-09-09T05:31:37.529Z,16.10
2022-09-09T05:33:43.401Z,16.20
2022-09-09T05:35:45.999Z,16.10
2022-09-09T05:37:48.697Z,16.10
2022-09-09T05:39:51.549Z,16.10
2022-09-09T05:41:54.547Z,16.10
2022-09-09T05:43:59.189Z,16.20
2022-09-09T05:46:02.543Z,16.10
2022-09-09T05:48:05.926Z,16.20
2022-09-09T05:50:09.063Z,16.20
2022-09-09T05:52:11.683Z,16.20
2022-09-09T05:54:15.809Z,16.30
2022-09-09T05:58:35.824Z,16.20
2022-09-09T06:00:39.614Z,16.20
2022-09-09T06:02:42.538Z,16.30
2022-09-09T06:04:47.763Z,16.30
2022-09-09T06:06:50.999Z,16.30
2022-09-09T06:08:57.457Z,16.30
2022-09-09T06:11:05.229Z,16.30
2022-09-09T06:13:09.757Z,16.30
2022-09-09T06:15:12.341Z,16.30
2022-09-09T06:17:15.125Z,16.40
2022-09-09T06:19:17.810Z,16.40
2022-09-09T06:21:21.490Z,16.30
2022-09-09T06:23:24.369Z,16.40
2022-09-09T06:25:26.974Z,16.40
2022-09-09T06:27:30.326Z,16.40
2022-09-09T06:29:32.941Z,16.50
2022-09-09T06:31:37.153Z,16.50
2022-09-09T06:33:42.397Z,16.60
2022-09-09T06:35:53.598Z,16.60
2022-09-09T06:37:58.573Z,16.70
2022-09-09T06:40:01.235Z,16.60
2022-09-09T06:42:04.882Z,16.70
2022-09-09T06:44:09.232Z,16.70
2022-09-09T06:46:14.438Z,16.80
2022-09-09T06:48:17.130Z,16.90
2022-09-09T06:50:21.322Z,16.90
2022-09-09T06:52:25.237Z,16.90
2022-09-09T06:54:28.258Z,16.90
2022-09-09T06:56:32.381Z,16.90
2022-09-09T06:58:35.414Z,17.00
2022-09-09T07:00:39.141Z,16.90
2022-09-09T07:02:41.801Z,17.00
2022-09-09T07:04:45.086Z,17.00
2022-09-09T07:06:47.680Z,17.00
2022-09-09T07:08:56.664Z,16.90
2022-09-09T07:11:11.588Z,17.00
2022-09-09T07:13:11.574Z,17.00
2022-09-09T07:15:14.550Z,17.00
2022-09-09T07:17:18.994Z,17.00
2022-09-09T07:19:22.098Z,17.10
2022-09-09T07:21:27.166Z,17.10
2022-09-09T07:23:34.248Z,17.20
2022-09-09T07:25:34.974Z,17.20
2022-09-09T07:27:37.703Z,17.30
2022-09-09T07:29:40.593Z,17.20
2022-09-09T07:31:43.282Z,17.30
2022-09-09T07:33:48.705Z,17.30
2022-09-09T07:35:51.775Z,17.30
2022-09-09T07:37:54.562Z,17.20
2022-09-09T07:39:57.209Z,17.20
2022-09-09T07:42:00.178Z,17.20
2022-09-09T07:44:05.796Z,17.20
2022-09-09T07:46:09.448Z,17.10
2022-09-09T07:48:12.168Z,17.10
2022-09-09T07:50:15.543Z,17.10
2022-09-09T07:52:20.058Z,17.20
2022-09-09T07:54:24.018Z,17.20
2022-09-09T07:56:27.374Z,17.30
2022-09-09T07:58:46.046Z,17.40
2022-09-09T08:00:51.177Z,17.50
2022-09-09T08:02:55.398Z,17.70
2022-09-09T08:04:59.298Z,17.80
2022-09-09T08:07:04.042Z,17.90
2022-09-09T08:09:09.914Z,17.90
2022-09-09T08:11:15.190Z,17.90
2022-09-09T08:13:20.112Z,17.90
2022-09-09T08:15:25.280Z,17.80
2022-09-09T08:17:29.215Z,17.80
2022-09-09T08:19:36.039Z,17.90
2022-09-09T08:21:41.586Z,17.80
2022-09-09T08:23:46.549Z,17.80
2022-09-09T08:25:50.797Z,17.80
2022-09-09T08:27:55.611Z,17.90
2022-09-09T08:29:59.606Z,17.90
2022-09-09T08:32:16.343Z,18.00
2022-09-09T08:34:41.137Z,18.00
2022-09-09T08:36:43.587Z,18.00
2022-09-09T08:38:50.439Z,18.10
2022-09-09T08:40:57.669Z,18.10
2022-09-09T08:43:03.759Z,18.20
2022-09-09T08:45:12.710Z,18.20
2022-09-09T08:47:17.890Z,18.30
2022-09-09T08:49:27.078Z,18.20
2022-09-09T08:51:31.791Z,18.20
2022-09-09T08:53:38.435Z,18.10
2022-09-09T08:55:43.226Z,18.10
2022-09-09T08:57:46.788Z,18.10
2022-09-09T08:59:50.978Z,18.10
2022-09-09T09:01:57.941Z,18.10
2022-09-09T09:04:04.411Z,18.30
2022-09-09T09:06:09.634Z,18.30
2022-09-09T09:08:14.986Z,18.30
2022-09-09T09:10:40.503Z,18.50
2022-09-09T09:12:24.982Z,18.60
2022-09-09T09:16:35.790Z,18.70
2022-09-09T09:18:40.152Z,18.80
2022-09-09T09:20:46.415Z,18.80
2022-09-09T09:22:51.082Z,18.70
2022-09-09T09:24:55.479Z,18.70
2022-09-09T09:27:01.555Z,18.80
2022-09-09T09:29:07.616Z,18.90
2022-09-09T09:31:11.669Z,18.90
2022-09-09T09:33:17.172Z,19.00
2022-09-09T09:35:19.874Z,19.20
2022-09-09T09:37:24.558Z,19.60
2022-09-09T09:41:35.197Z,20.20
2022-09-09T09:43:39.714Z,20.20
2022-09-09T09:45:55.231Z,20.20
2022-09-09T09:48:03.056Z,20.20
2022-09-09T09:52:20.585Z,20.60
2022-09-09T09:54:25.714Z,21.00
2022-09-09T09:56:30.236Z,21.20
2022-09-09T09:58:34.431Z,21.30
2022-09-09T10:00:37.116Z,21.40
2022-09-09T10:02:43.642Z,21.70
2022-09-09T10:04:47.049Z,22.00
2022-09-09T10:06:50.637Z,21.90
2022-09-09T10:09:10.334Z,21.30
2022-09-09T10:13:36.810Z,21.20
2022-09-09T10:15:42.166Z,21.20
2022-09-09T10:17:46.934Z,21.40
2022-09-09T10:19:55.446Z,21.60
2022-09-09T10:22:07.125Z,21.70
2022-09-09T10:24:15.283Z,21.90
2022-09-09T10:26:25.697Z,21.80
2022-09-09T10:28:32.583Z,21.30
2022-09-09T10:30:37.070Z,20.90
2022-09-09T10:32:41.980Z,20.80
2022-09-09T10:34:52.674Z,20.70
2022-09-09T10:36:55.261Z,20.50
2022-09-09T10:39:00.625Z,20.40
2022-09-09T10:41:09.491Z,20.50
2022-09-09T10:43:17.282Z,20.70
2022-09-09T10:45:22.963Z,21.10
2022-09-09T10:47:30.077Z,21.50
2022-09-09T10:49:41.868Z,21.70
2022-09-09T10:51:49.934Z,21.60
2022-09-09T10:53:58.977Z,21.80
2022-09-09T10:56:05.193Z,21.90
2022-09-09T10:58:13.591Z,22.00
2022-09-09T11:00:20.813Z,22.30
2022-09-09T11:02:28.120Z,22.50
2022-09-09T11:04:39.500Z,22.60
2022-09-09T11:06:47.881Z,22.50
2022-09-09T11:08:57.080Z,22.30
2022-09-09T11:11:05.081Z,22.40
2022-09-09T11:13:11.202Z,22.70
2022-09-09T11:15:16.562Z,22.30
2022-09-09T11:17:21.181Z,21.80
2022-09-09T11:19:25.506Z,21.80
2022-09-09T11:21:30.477Z,21.90
2022-09-09T11:23:38.827Z,21.90
2022-09-09T11:25:41.414Z,22.00
2022-09-09T11:27:45.925Z,22.20
2022-09-09T11:30:01.482Z,22.60
2022-09-09T11:32:08.546Z,22.80
2022-09-09T11:34:16.298Z,22.90
2022-09-09T11:36:25.965Z,22.70
2022-09-09T11:38:29.334Z,22.60
2022-09-09T11:40:33.401Z,22.20
2022-09-09T11:42:36.529Z,22.00
2022-09-09T11:44:39.237Z,21.90
2022-09-09T11:46:42.244Z,22.10
2022-09-09T11:51:02.629Z,22.00
2022-09-09T11:53:21.300Z,21.70
2022-09-09T11:55:26.731Z,21.60
2022-09-09T11:57:31.237Z,22.00
2022-09-09T11:59:33.903Z,22.20
2022-09-09T12:01:38.067Z,22.50
2022-09-09T12:03:43.213Z,22.70
2022-09-09T12:05:47.233Z,22.60
2022-09-09T12:07:53.885Z,22.70
2022-09-09T12:09:58.839Z,22.70
2022-09-09T12:12:26.809Z,22.70
2022-09-09T12:14:36.541Z,22.70
2022-09-09T12:16:40.597Z,22.70
2022-09-09T12:18:45.644Z,22.50
2022-09-09T12:20:54.282Z,22.70
2022-09-09T12:23:04.101Z,22.80
2022-09-09T12:25:08.920Z,22.60
2022-09-09T12:27:13.967Z,22.40
2022-09-09T12:29:20.314Z,22.10
2022-09-09T12:31:25.022Z,22.00
2022-09-09T12:33:29.317Z,21.90
2022-09-09T12:35:32.129Z,22.30
2022-09-09T12:37:36.147Z,22.50
2022-09-09T12:39:39.529Z,22.70
2022-09-09T12:44:06.580Z,22.30
2022-09-09T12:46:10.463Z,21.80
2022-09-09T12:48:15.229Z,21.90
2022-09-09T12:50:19.834Z,21.80
2022-09-09T12:52:24.797Z,21.80
2022-09-09T12:54:28.984Z,21.80
2022-09-09T12:56:32.526Z,21.60
2022-09-09T12:58:35.239Z,21.50
2022-09-09T13:00:37.769Z,21.40
2022-09-09T13:02:48.340Z,21.50
2022-09-09T13:04:51.585Z,21.50
2022-09-09T13:06:55.830Z,21.30
2022-09-09T13:11:27.567Z,21.10
2022-09-09T13:13:32.050Z,21.00
2022-09-09T13:15:35.979Z,20.50
2022-09-09T13:17:39.993Z,20.10
2022-09-09T13:19:45.941Z,19.90
2022-09-09T13:21:48.642Z,19.80
2022-09-09T13:23:52.538Z,19.70
2022-09-09T13:25:55.853Z,19.70
2022-09-09T13:27:59.597Z,19.70
2022-09-09T13:30:02.455Z,19.80
2022-09-09T13:32:06.798Z,19.80
2022-09-09T13:34:13.798Z,19.80
2022-09-09T13:36:16.314Z,19.90
2022-09-09T13:38:18.801Z,19.90
2022-09-09T13:40:22.738Z,19.90
2022-09-09T13:42:26.586Z,19.90
2022-09-09T13:44:30.870Z,19.90
2022-09-09T13:46:34.943Z,20.00
2022-09-09T13:48:37.431Z,20.00
2022-09-09T13:52:58.594Z,20.10
2022-09-09T13:55:01.053Z,20.00
2022-09-09T13:57:04.881Z,20.00
2022-09-09T13:59:09.198Z,20.00
2022-09-09T14:01:11.935Z,20.00
2022-09-09T14:03:14.778Z,20.00
2022-09-09T14:05:17.749Z,20.10
2022-09-09T14:07:20.465Z,20.20
2022-09-09T14:09:23.009Z,20.30
2022-09-09T14:11:25.488Z,20.40
2022-09-09T14:13:28.233Z,20.40
2022-09-09T14:15:30.948Z,20.40
2022-09-09T14:17:34.158Z,20.50
2022-09-09T14:19:37.498Z,20.60
2022-09-09T14:21:40.003Z,20.70
2022-09-09T14:23:42.517Z,20.70
2022-09-09T14:25:44.983Z,20.80
2022-09-09T14:27:47.569Z,20.70
2022-09-09T14:29:50.070Z,20.90
2022-09-09T14:31:52.553Z,20.90
2022-09-09T14:33:55.242Z,20.90
2022-09-09T14:35:58.173Z,21.00
2022-09-09T14:38:01.381Z,21.00
2022-09-09T14:40:04.335Z,20.90
2022-09-09T14:42:07.513Z,20.70
2022-09-09T14:44:10.629Z,20.60
2022-09-09T14:46:14.103Z,20.40
2022-09-09T14:48:18.931Z,20.40
2022-09-09T14:50:22.458Z,20.20
2022-09-09T14:52:26.030Z,20.20
2022-09-09T14:54:28.746Z,20.00
2022-09-09T14:56:34.825Z,19.90
2022-09-09T14:58:38.244Z,19.90
2022-09-09T15:00:41.634Z,19.90
2022-09-09T15:02:44.199Z,19.90
2022-09-09T15:04:46.773Z,20.00
2022-09-09T15:06:50.374Z,20.10
2022-09-09T15:08:53.615Z,20.30
2022-09-09T15:11:00.789Z,20.40
2022-09-09T15:13:03.263Z,20.70
2022-09-09T15:15:06.518Z,20.70
2022-09-09T15:17:09.011Z,20.70
2022-09-09T15:19:11.731Z,20.60
2022-09-09T15:21:14.822Z,20.70
2022-09-09T15:23:17.800Z,20.80
2022-09-09T15:25:20.309Z,20.80
2022-09-09T15:27:24.064Z,20.80
2022-09-09T15:29:26.637Z,20.80
2022-09-09T15:31:30.617Z,20.70
2022-09-09T15:33:33.154Z,20.40
2022-09-09T15:35:35.722Z,20.10
2022-09-09T15:37:38.230Z,20.00
2022-09-09T15:39:40.982Z,19.90
2022-09-09T15:41:43.792Z,19.80
2022-09-09T15:43:46.693Z,19.80
2022-09-09T15:45:52.432Z,19.70
2022-09-09T15:47:55.082Z,19.60
2022-09-09T15:49:57.767Z,19.60
2022-09-09T15:52:02.708Z,19.60
2022-09-09T15:54:05.913Z,19.60
2022-09-09T15:56:08.627Z,19.50
2022-09-09T15:58:12.663Z,19.60
2022-09-09T16:02:31.077Z,19.50
2022-09-09T16:04:34.454Z,19.30
2022-09-09T16:06:37.184Z,19.10
2022-09-09T16:08:41.135Z,18.90
2022-09-09T16:10:43.822Z,18.80
2022-09-09T16:12:46.338Z,18.50
2022-09-09T16:14:48.833Z,18.30
2022-09-09T16:16:51.844Z,18.20
2022-09-09T16:18:55.870Z,18.10
2022-09-09T16:20:58.490Z,17.90
2022-09-09T16:23:02.209Z,17.80
2022-09-09T16:25:05.739Z,17.70
2022-09-09T16:27:08.279Z,17.60
2022-09-09T16:29:10.794Z,17.60
2022-09-09T16:31:14.896Z,17.40
2022-09-09T16:33:17.639Z,17.30
2022-09-09T16:35:21.570Z,17.10
2022-09-09T16:37:24.230Z,17.00
2022-09-09T16:39:26.717Z,16.90
2022-09-09T16:41:30.146Z,16.70
2022-09-09T16:43:32.823Z,16.70
2022-09-09T16:45:35.358Z,16.70
2022-09-09T16:49:57.719Z,16.50
2022-09-09T16:52:00.538Z,16.50
2022-09-09T16:54:04.362Z,16.50
2022-09-09T16:56:07.437Z,16.40
2022-09-09T16:58:11.109Z,16.20
2022-09-09T17:00:13.777Z,16.20
2022-09-09T17:02:16.709Z,16.20
2022-09-09T17:04:21.114Z,16.30
2022-09-09T17:06:23.697Z,16.30
2022-09-09T17:08:26.274Z,16.40
2022-09-09T17:10:28.819Z,16.40
2022-09-09T17:12:31.306Z,16.40
2022-09-09T17:14:33.821Z,16.40
2022-09-09T17:16:36.401Z,16.40
2022-09-09T17:18:39.209Z,16.40
2022-09-09T17:20:46.867Z,16.40
2022-09-09T17:22:46.547Z,16.40
2022-09-09T17:24:49.098Z,16.40
2022-09-09T17:26:51.591Z,16.40
2022-09-09T17:28:59.129Z,16.40
2022-09-09T17:31:01.642Z,16.30
2022-09-09T17:33:04.389Z,16.20
2022-09-09T17:35:07.476Z,16.20
2022-09-09T17:37:10.022Z,16.20
2022-09-09T17:39:12.494Z,16.30
2022-09-09T17:41:16.569Z,16.10
2022-09-09T17:43:19.306Z,16.10
2022-09-09T17:45:21.845Z,16.20
2022-09-09T17:47:24.521Z,16.20
2022-09-09T17:49:30.780Z,16.20
2022-09-09T17:51:39.569Z,16.10
2022-09-09T17:53:45.129Z,16.10
2022-09-09T17:55:52.486Z,16.10
2022-09-09T17:57:52.367Z,16.10
2022-09-09T17:59:54.988Z,16.10
2022-09-09T18:01:57.948Z,16.10
2022-09-09T18:04:03.249Z,16.00
2022-09-09T18:06:07.483Z,16.00
2022-09-09T18:08:09.970Z,16.00
2022-09-09T18:10:12.601Z,16.00
2022-09-09T18:12:15.511Z,16.00
2022-09-09T18:14:19.473Z,16.00
2022-09-09T18:16:22.833Z,16.00
2022-09-09T18:18:25.638Z,16.00
2022-09-09T18:20:28.121Z,15.90
2022-09-09T18:22:30.915Z,15.90
2022-09-09T18:24:33.701Z,15.80
2022-09-09T18:26:36.441Z,15.90
2022-09-09T18:28:40.438Z,15.80
2022-09-09T18:30:44.447Z,15.80
2022-09-09T18:32:51.237Z,15.80
2022-09-09T18:34:55.770Z,15.80
2022-09-09T18:36:58.541Z,15.80
2022-09-09T18:41:21.342Z,15.90
2022-09-09T18:43:25.781Z,15.80
2022-09-09T18:45:30.134Z,15.80
2022-09-09T18:47:34.516Z,15.80
2022-09-09T18:49:38.346Z,15.70
2022-09-09T18:51:43.212Z,15.70
2022-09-09T18:53:50.640Z,15.80
2022-09-09T18:56:01.200Z,15.70
2022-09-09T18:58:05.395Z,15.70
2022-09-09T19:00:20.076Z,15.70
2022-09-09T19:02:32.186Z,15.80
2022-09-09T19:04:43.711Z,15.90
2022-09-09T19:06:54.313Z,15.80
2022-09-09T19:09:05.377Z,15.70
2022-09-09T19:11:19.365Z,15.70
2022-09-09T19:13:29.133Z,15.60
2022-09-09T19:15:40.979Z,15.70
2022-09-09T19:18:12.483Z,15.60
2022-09-09T19:20:45.464Z,15.70
2022-09-09T19:23:00.467Z,15.60
2022-09-09T19:25:40.984Z,15.70
2022-09-09T19:27:57.693Z,15.60
2022-09-09T19:30:11.262Z,15.60
2022-09-09T19:32:51.751Z,15.60
2022-09-09T19:34:30.759Z,15.60
2022-09-09T19:36:34.437Z,15.60
2022-09-09T19:38:38.131Z,15.60
2022-09-09T19:40:42.290Z,15.60
2022-09-09T19:42:45.692Z,15.50
2022-09-09T19:44:49.917Z,15.50
2022-09-09T19:46:54.778Z,15.50
2022-09-09T19:48:58.932Z,15.40
2022-09-09T19:51:03.457Z,15.50
2022-09-09T19:55:28.582Z,15.40
2022-09-09T19:57:30.454Z,15.40
2022-09-09T19:59:33.990Z,15.40
2022-09-09T20:01:40.395Z,15.40
2022-09-09T20:03:44.763Z,15.40
2022-09-09T20:05:49.104Z,15.40
2022-09-09T20:07:52.722Z,15.30
2022-09-09T20:09:56.288Z,15.40
2022-09-09T20:11:59.207Z,15.40
2022-09-09T20:14:03.003Z,15.40
2022-09-09T20:16:07.599Z,15.40
2022-09-09T20:18:10.824Z,15.40
2022-09-09T20:20:14.280Z,15.40
2022-09-09T20:22:17.925Z,15.40
2022-09-09T20:24:22.672Z,15.40
2022-09-09T20:26:27.748Z,15.40
2022-09-09T20:28:31.227Z,15.40
2022-09-09T20:30:36.472Z,15.40
2022-09-09T20:32:39.473Z,15.40
2022-09-09T20:34:46.448Z,15.30
2022-09-09T20:36:46.791Z,15.40
2022-09-09T20:38:50.791Z,15.40
2022-09-09T20:40:53.346Z,15.30
2022-09-09T20:42:55.849Z,15.30
2022-09-09T20:44:58.375Z,15.30
2022-09-09T20:47:02.704Z,15.30
2022-09-09T20:49:06.240Z,15.30
2022-09-09T20:51:10.063Z,15.30
2022-09-09T20:53:12.657Z,15.30
2022-09-09T20:55:15.240Z,15.30
2022-09-09T20:57:19.550Z,15.30
2022-09-09T20:59:23.101Z,15.30
2022-09-09T21:01:25.762Z,15.30
2022-09-09T21:03:29.263Z,15.30
2022-09-09T21:05:31.969Z,15.40
2022-09-09T21:07:34.623Z,15.30
2022-09-09T21:09:37.117Z,15.40
2022-09-09T21:11:40.007Z,15.40
2022-09-09T21:13:42.501Z,15.40
2022-09-09T21:15:45.252Z,15.30
2022-09-09T21:17:47.761Z,15.40
2022-09-09T21:19:50.221Z,15.30
2022-09-09T21:21:52.728Z,15.30
2022-09-09T21:23:55.910Z,15.30
2022-09-09T21:25:58.399Z,15.30
2022-09-09T21:28:00.909Z,15.40
2022-09-09T21:30:03.539Z,15.40
2022-09-09T21:32:06.261Z,15.30
2022-09-09T21:34:09.505Z,15.30
2022-09-09T21:36:13.090Z,15.30
2022-09-09T21:38:17.090Z,15.30
2022-09-09T21:40:20.139Z,15.30
2022-09-09T21:42:22.762Z,15.30
2022-09-09T21:44:26.380Z,15.30
2022-09-09T21:46:28.910Z,15.30
2022-09-09T21:48:31.475Z,15.40
2022-09-09T21:50:36.098Z,15.30
2022-09-09T21:52:38.602Z,15.30
2022-09-09T21:54:42.661Z,15.30
2022-09-09T21:56:45.178Z,15.30
2022-09-09T21:58:47.649Z,15.40
2022-09-09T22:00:50.193Z,15.40
2022-09-09T22:02:52.698Z,15.30
2022-09-09T22:04:56.176Z,15.30
2022-09-09T22:06:58.674Z,15.30
2022-09-09T22:09:01.582Z,15.30
2022-09-09T22:11:08.203Z,15.30
2022-09-09T22:13:10.708Z,15.30
2022-09-09T22:15:13.198Z,15.30
2022-09-09T22:17:15.707Z,15.20
2022-09-09T22:19:18.225Z,15.30
2022-09-09T22:21:21.422Z,15.30
2022-09-09T22:23:23.922Z,15.30
2022-09-09T22:25:26.426Z,15.40
2022-09-09T22:27:28.926Z,15.30
2022-09-09T22:29:31.434Z,15.30
2022-09-09T22:31:34.317Z,15.30
2022-09-09T22:33:36.814Z,15.40
2022-09-09T22:35:41.738Z,15.40
2022-09-09T22:37:44.410Z,15.30
2022-09-09T22:39:47.356Z,15.40
2022-09-09T22:41:49.875Z,15.40
2022-09-09T22:43:52.918Z,15.50
2022-09-09T22:45:55.394Z,15.40
2022-09-09T22:47:58.312Z,15.50
2022-09-09T22:50:01.173Z,15.40
2022-09-09T22:52:03.660Z,15.40
2022-09-09T22:54:07.331Z,15.50
2022-09-09T22:56:12.292Z,15.50
2022-09-09T22:58:16.532Z,15.50
2022-09-09T23:00:19.236Z,15.50
2022-09-09T23:02:21.816Z,15.50
2022-09-09T23:04:24.643Z,15.50
2022-09-09T23:06:28.042Z,15.50
2022-09-09T23:08:32.842Z,15.50
2022-09-09T23:10:35.358Z,15.50
2022-09-09T23:12:39.623Z,15.50
2022-09-09T23:14:42.090Z,15.50
2022-09-09T23:16:45.926Z,15.40
2022-09-09T23:18:49.790Z,15.40
2022-09-09T23:20:59.212Z,15.40
2022-09-09T23:23:01.690Z,15.40
2022-09-09T23:25:05.435Z,15.40
2022-09-09T23:27:07.946Z,15.40
2022-09-09T23:29:13.055Z,15.40
2022-09-09T23:31:16.798Z,15.40
2022-09-09T23:33:19.367Z,15.40
2022-09-09T23:35:21.907Z,15.20
2022-09-09T23:37:24.462Z,15.30
2022-09-09T23:39:26.933Z,15.30
2022-09-09T23:41:30.117Z,15.30
2022-09-09T23:43:34.730Z,15.20
2022-09-09T23:45:37.243Z,15.30
2022-09-09T23:47:39.725Z,15.30
2022-09-09T23:49:42.326Z,15.30
2022-09-09T23:51:44.813Z,15.30
2022-09-09T23:53:50.134Z,15.30
2022-09-09T23:55:53.154Z,15.20
2022-09-09T23:57:55.846Z,15.30
2022-09-09T23:59:58.475Z,15.20
